sensor_id;sensor_type;location;lat;lon;timestamp;pressure;altitude;pressure_sealevel;temperature;humidity
9721;BME280;4899;42.644;23.366;2023-03-23T00:02:23;94201.09;;;5.85;100.00
9721;BME280;4899;42.644;23.366;2023-03-23T00:04:48;94212.75;;;5.92;100.00
9721;BME280;4899;42.644;23.366;2023-03-23T00:07:14;94229.13;;;5.91;100.00
9721;BME280;4899;42.644;23.366;2023-03-23T00:09:48;94216.28;;;5.77;100.00
9721;BME280;4899;42.644;23.366;2023-03-23T00:12:26;94210.59;;;5.61;100.00
9721;BME280;4899;42.644;23.366;2023-03-23T00:15:06;94215.44;;;5.63;100.00
9721;BME280;4899;42.644;23.366;2023-03-23T00:17:33;94210.00;;;5.50;100.00
9721;BME280;4899;42.644;23.366;2023-03-23T00:20:00;94226.53;;;5.53;100.00
9721;BME280;4899;42.644;23.366;2023-03-23T00:22:30;94217.47;;;5.42;100.00
9721;BME280;4899;42.644;23.366;2023-03-23T00:24:56;94219.59;;;5.35;100.00
9721;BME280;4899;42.644;23.366;2023-03-23T00:27:22;94230.69;;;5.25;100.00
9721;BME280;4899;42.644;23.366;2023-03-23T00:29:49;94225.69;;;5.15;100.00
9721;BME280;4899;42.644;23.366;2023-03-23T00:32:20;94234.84;;;5.16;100.00
9721;BME280;4899;42.644;23.366;2023-03-23T00:34:56;94234.84;;;5.16;100.00
9721;BME280;4899;42.644;23.366;2023-03-23T00:37:24;94234.38;;;5.14;100.00
9721;BME280;4899;42.644;23.366;2023-03-23T00:39:50;94224.50;;;5.07;100.00
9721;BME280;4899;42.644;23.366;2023-03-23T00:42:17;94245.78;;;5.21;100.00
9721;BME280;4899;42.644;23.366;2023-03-23T00:44:43;94236.09;;;5.18;100.00
9721;BME280;4899;42.644;23.366;2023-03-23T00:47:10;94238.38;;;5.20;100.00
9721;BME280;4899;42.644;23.366;2023-03-23T00:49:37;94245.78;;;5.21;100.00
9721;BME280;4899;42.644;23.366;2023-03-23T00:52:03;94246.03;;;5.20;100.00
9721;BME280;4899;42.644;23.366;2023-03-23T00:54:31;94235.06;;;5.19;100.00
9721;BME280;4899;42.644;23.366;2023-03-23T00:56:57;94242.97;;;5.23;100.00
9721;BME280;4899;42.644;23.366;2023-03-23T00:59:22;94216.38;;;5.05;100.00
9721;BME280;4899;42.644;23.366;2023-03-23T01:01:48;94254.06;;;5.32;100.00
9721;BME280;4899;42.644;23.366;2023-03-23T01:04:14;94249.72;;;5.33;100.00
9721;BME280;4899;42.644;23.366;2023-03-23T01:06:42;94249.13;;;5.41;100.00
9721;BME280;4899;42.644;23.366;2023-03-23T01:09:10;94254.19;;;5.46;100.00
9721;BME280;4899;42.644;23.366;2023-03-23T01:11:36;94250.53;;;5.52;100.00
9721;BME280;4899;42.644;23.366;2023-03-23T01:14:03;94244.13;;;5.54;100.00
9721;BME280;4899;42.644;23.366;2023-03-23T01:16:28;94234.19;;;5.53;100.00
9721;BME280;4899;42.644;23.366;2023-03-23T01:18:54;94248.94;;;5.56;100.00
9721;BME280;4899;42.644;23.366;2023-03-23T01:21:21;94234.25;;;5.48;100.00
9721;BME280;4899;42.644;23.366;2023-03-23T01:23:47;94231.44;;;5.49;100.00
9721;BME280;4899;42.644;23.366;2023-03-23T01:26:18;94236.19;;;5.56;100.00
9721;BME280;4899;42.644;23.366;2023-03-23T01:28:44;94246.25;;;5.66;100.00
9721;BME280;4899;42.644;23.366;2023-03-23T01:31:13;94241.03;;;5.76;100.00
9721;BME280;4899;42.644;23.366;2023-03-23T01:33:40;94228.41;;;5.85;100.00
9721;BME280;4899;42.644;23.366;2023-03-23T01:36:10;94222.69;;;5.93;100.00
9721;BME280;4899;42.644;23.366;2023-03-23T01:38:36;94233.81;;;6.02;100.00
9721;BME280;4899;42.644;23.366;2023-03-23T01:41:02;94224.66;;;6.01;100.00
9721;BME280;4899;42.644;23.366;2023-03-23T01:43:28;94225.53;;;6.10;100.00
9721;BME280;4899;42.644;23.366;2023-03-23T01:45:54;94179.31;;;5.93;100.00
9721;BME280;4899;42.644;23.366;2023-03-23T01:48:35;94230.13;;;6.27;100.00
9721;BME280;4899;42.644;23.366;2023-03-23T01:51:06;94192.81;;;6.12;100.00
9721;BME280;4899;42.644;23.366;2023-03-23T01:53:37;94219.34;;;6.30;100.00
9721;BME280;4899;42.644;23.366;2023-03-23T01:56:04;94220.31;;;6.34;100.00
9721;BME280;4899;42.644;23.366;2023-03-23T01:58:33;94203.06;;;6.26;100.00
9721;BME280;4899;42.644;23.366;2023-03-23T02:01:04;94213.00;;;6.28;100.00
9721;BME280;4899;42.644;23.366;2023-03-23T02:03:32;94201.13;;;6.18;100.00
9721;BME280;4899;42.644;23.366;2023-03-23T02:05:58;94212.72;;;6.29;100.00
9721;BME280;4899;42.644;23.366;2023-03-23T02:08:26;94209.22;;;6.25;100.00
9721;BME280;4899;42.644;23.366;2023-03-23T02:10:54;94214.25;;;6.30;100.00
9721;BME280;4899;42.644;23.366;2023-03-23T02:13:20;94207.06;;;6.32;100.00
9721;BME280;4899;42.644;23.366;2023-03-23T02:19:05;94214.00;;;6.45;100.00
9721;BME280;4899;42.644;23.366;2023-03-23T02:27:05;94204.75;;;6.50;100.00
9721;BME280;4899;42.644;23.366;2023-03-23T02:32:42;94219.50;;;6.53;100.00
9721;BME280;4899;42.644;23.366;2023-03-23T02:35:19;94214.00;;;6.45;100.00
9721;BME280;4899;42.644;23.366;2023-03-23T02:37:57;94212.00;;;6.42;100.00
9721;BME280;4899;42.644;23.366;2023-03-23T02:40:29;94210.09;;;6.34;100.00
9721;BME280;4899;42.644;23.366;2023-03-23T02:42:57;94209.81;;;6.36;100.00
9721;BME280;4899;42.644;23.366;2023-03-23T02:45:24;94206.50;;;6.35;100.00
9721;BME280;4899;42.644;23.366;2023-03-23T02:47:52;94217.28;;;6.32;100.00
9721;BME280;4899;42.644;23.366;2023-03-23T02:50:21;94227.31;;;6.29;100.00
9721;BME280;4899;42.644;23.366;2023-03-23T02:52:48;94234.47;;;6.27;100.00
9721;BME280;4899;42.644;23.366;2023-03-23T02:55:17;94226.69;;;6.18;100.00
9721;BME280;4899;42.644;23.366;2023-03-23T02:57:44;94232.16;;;6.11;100.00
9721;BME280;4899;42.644;23.366;2023-03-23T03:00:14;94238.00;;;6.12;100.00
9721;BME280;4899;42.644;23.366;2023-03-23T03:02:46;94239.88;;;6.06;100.00
9721;BME280;4899;42.644;23.366;2023-03-23T03:10:59;94262.91;;;5.82;100.00
9721;BME280;4899;42.644;23.366;2023-03-23T03:16:22;94270.25;;;5.65;100.00
9721;BME280;4899;42.644;23.366;2023-03-23T03:21:16;94267.91;;;5.50;100.00
9721;BME280;4899;42.644;23.366;2023-03-23T03:23:46;94262.59;;;5.22;100.00
9721;BME280;4899;42.644;23.366;2023-03-23T03:26:12;94261.72;;;5.08;100.00
9721;BME280;4899;42.644;23.366;2023-03-23T03:28:44;94262.81;;;5.02;100.00
9721;BME280;4899;42.644;23.366;2023-03-23T03:31:15;94273.44;;;5.09;100.00
9721;BME280;4899;42.644;23.366;2023-03-23T03:33:43;94263.41;;;4.89;100.00
9721;BME280;4899;42.644;23.366;2023-03-23T03:36:22;94267.28;;;4.86;100.00
9721;BME280;4899;42.644;23.366;2023-03-23T03:38:51;94261.47;;;4.81;100.00
9721;BME280;4899;42.644;23.366;2023-03-23T03:41:18;94269.59;;;4.83;100.00
9721;BME280;4899;42.644;23.366;2023-03-23T03:43:44;94271.38;;;4.82;100.00
9721;BME280;4899;42.644;23.366;2023-03-23T03:46:10;94250.16;;;4.63;100.00
9721;BME280;4899;42.644;23.366;2023-03-23T03:48:36;94255.53;;;4.61;100.00
9721;BME280;4899;42.644;23.366;2023-03-23T03:51:01;94263.91;;;4.62;100.00
9721;BME280;4899;42.644;23.366;2023-03-23T03:53:28;94261.09;;;4.63;100.00
9721;BME280;4899;42.644;23.366;2023-03-23T03:55:54;94269.78;;;4.62;100.00
9721;BME280;4899;42.644;23.366;2023-03-23T03:58:28;94258.06;;;4.61;100.00
9721;BME280;4899;42.644;23.366;2023-03-23T04:00:58;94258.50;;;4.69;100.00
9721;BME280;4899;42.644;23.366;2023-03-23T04:03:24;94258.28;;;4.65;100.00
9721;BME280;4899;42.644;23.366;2023-03-23T04:05:51;94243.22;;;4.69;100.00
9721;BME280;4899;42.644;23.366;2023-03-23T04:08:16;94255.88;;;4.79;100.00
9721;BME280;4899;42.644;23.366;2023-03-23T04:10:43;94261.75;;;4.79;100.00
9721;BME280;4899;42.644;23.366;2023-03-23T04:13:09;94241.69;;;4.73;100.00
9721;BME280;4899;42.644;23.366;2023-03-23T04:15:35;94250.53;;;4.80;100.00
9721;BME280;4899;42.644;23.366;2023-03-23T04:18:01;94237.84;;;4.70;100.00
9721;BME280;4899;42.644;23.366;2023-03-23T04:20:26;94262.22;;;4.81;100.00
9721;BME280;4899;42.644;23.366;2023-03-23T04:22:52;94256.44;;;4.76;100.00
9721;BME280;4899;42.644;23.366;2023-03-23T04:25:21;94257.41;;;4.80;100.00
9721;BME280;4899;42.644;23.366;2023-03-23T04:27:48;94266.03;;;4.84;100.00
9721;BME280;4899;42.644;23.366;2023-03-23T04:30:19;94257.34;;;4.85;100.00
9721;BME280;4899;42.644;23.366;2023-03-23T04:33:05;94265.22;;;4.88;100.00
9721;BME280;4899;42.644;23.366;2023-03-23T04:35:32;94257.88;;;4.82;100.00
9721;BME280;4899;42.644;23.366;2023-03-23T04:37:59;94258.97;;;4.76;100.00
9721;BME280;4899;42.644;23.366;2023-03-23T04:40:24;94270.09;;;4.85;100.00
9721;BME280;4899;42.644;23.366;2023-03-23T04:42:50;94255.06;;;4.83;100.00
9721;BME280;4899;42.644;23.366;2023-03-23T04:45:19;94259.34;;;4.88;100.00
9721;BME280;4899;42.644;23.366;2023-03-23T04:47:50;94256.06;;;4.87;100.00
9721;BME280;4899;42.644;23.366;2023-03-23T04:50:25;94266.69;;;4.94;100.00
9721;BME280;4899;42.644;23.366;2023-03-23T04:52:52;94261.09;;;4.92;100.00
9721;BME280;4899;42.644;23.366;2023-03-23T04:55:19;94277.00;;;5.08;100.00
9721;BME280;4899;42.644;23.366;2023-03-23T04:57:46;94276.25;;;5.08;100.00
9721;BME280;4899;42.644;23.366;2023-03-23T05:00:12;94275.50;;;5.07;100.00
9721;BME280;4899;42.644;23.366;2023-03-23T05:02:41;94279.44;;;5.18;100.00
9721;BME280;4899;42.644;23.366;2023-03-23T05:05:08;94285.69;;;5.31;100.00
9721;BME280;4899;42.644;23.366;2023-03-23T05:07:36;94280.00;;;5.39;100.00
9721;BME280;4899;42.644;23.366;2023-03-23T05:10:02;94286.31;;;5.47;100.00
9721;BME280;4899;42.644;23.366;2023-03-23T05:12:28;94256.34;;;5.34;100.00
9721;BME280;4899;42.644;23.366;2023-03-23T05:14:53;94283.91;;;5.55;100.00
9721;BME280;4899;42.644;23.366;2023-03-23T05:17:20;94290.66;;;5.65;100.00
9721;BME280;4899;42.644;23.366;2023-03-23T05:19:50;94298.22;;;5.75;100.00
9721;BME280;4899;42.644;23.366;2023-03-23T05:22:16;94289.25;;;5.78;100.00
9721;BME280;4899;42.644;23.366;2023-03-23T05:24:42;94290.69;;;5.84;100.00
9721;BME280;4899;42.644;23.366;2023-03-23T05:27:11;94290.97;;;5.82;100.00
9721;BME280;4899;42.644;23.366;2023-03-23T05:29:37;94296.06;;;5.82;100.00
9721;BME280;4899;42.644;23.366;2023-03-23T05:32:03;94309.75;;;5.92;100.00
9721;BME280;4899;42.644;23.366;2023-03-23T05:34:30;94311.03;;;5.89;100.00
9721;BME280;4899;42.644;23.366;2023-03-23T05:36:59;94306.28;;;5.82;100.00
9721;BME280;4899;42.644;23.366;2023-03-23T05:39:24;94317.41;;;5.92;100.00
9721;BME280;4899;42.644;23.366;2023-03-23T05:41:50;94312.78;;;5.94;100.00
9721;BME280;4899;42.644;23.366;2023-03-23T05:44:16;94319.50;;;6.08;100.00
9721;BME280;4899;42.644;23.366;2023-03-23T05:46:44;94328.53;;;6.20;100.00
9721;BME280;4899;42.644;23.366;2023-03-23T05:49:09;94319.59;;;6.22;100.00
9721;BME280;4899;42.644;23.366;2023-03-23T05:51:34;94318.88;;;6.35;100.00
9721;BME280;4899;42.644;23.366;2023-03-23T05:54:00;94320.81;;;6.43;100.00
9721;BME280;4899;42.644;23.366;2023-03-23T05:56:27;94323.31;;;6.48;100.00
9721;BME280;4899;42.644;23.366;2023-03-23T05:58:54;94322.59;;;6.62;100.00
9721;BME280;4899;42.644;23.366;2023-03-23T06:01:19;94318.44;;;6.66;100.00
9721;BME280;4899;42.644;23.366;2023-03-23T06:03:45;94325.41;;;6.79;100.00
9721;BME280;4899;42.644;23.366;2023-03-23T06:06:11;94323.81;;;6.83;100.00
9721;BME280;4899;42.644;23.366;2023-03-23T06:08:38;94337.59;;;7.01;100.00
9721;BME280;4899;42.644;23.366;2023-03-23T06:11:04;94330.59;;;7.06;100.00
9721;BME280;4899;42.644;23.366;2023-03-23T06:13:30;94328.41;;;7.14;100.00
9721;BME280;4899;42.644;23.366;2023-03-23T06:15:56;94329.19;;;7.28;100.00
9721;BME280;4899;42.644;23.366;2023-03-23T06:18:23;94322.72;;;7.17;100.00
9721;BME280;4899;42.644;23.366;2023-03-23T06:20:49;94341.63;;;7.21;100.00
9721;BME280;4899;42.644;23.366;2023-03-23T06:23:16;94346.44;;;7.22;100.00
9721;BME280;4899;42.644;23.366;2023-03-23T06:25:43;94333.38;;;7.24;100.00
9721;BME280;4899;42.644;23.366;2023-03-23T06:28:09;94336.41;;;7.26;100.00
9721;BME280;4899;42.644;23.366;2023-03-23T06:30:36;94339.63;;;7.31;100.00
9721;BME280;4899;42.644;23.366;2023-03-23T06:33:02;94330.47;;;7.44;100.00
9721;BME280;4899;42.644;23.366;2023-03-23T06:35:31;94334.72;;;7.49;100.00
9721;BME280;4899;42.644;23.366;2023-03-23T06:37:57;94335.47;;;7.49;100.00
9721;BME280;4899;42.644;23.366;2023-03-23T06:40:27;94341.72;;;7.57;100.00
9721;BME280;4899;42.644;23.366;2023-03-23T06:42:52;94342.13;;;7.50;100.00
9721;BME280;4899;42.644;23.366;2023-03-23T06:45:18;94348.56;;;7.61;100.00
9721;BME280;4899;42.644;23.366;2023-03-23T06:47:45;94353.38;;;7.63;100.00
9721;BME280;4899;42.644;23.366;2023-03-23T06:50:15;94349.72;;;7.69;100.00
9721;BME280;4899;42.644;23.366;2023-03-23T06:52:45;94337.56;;;7.61;100.00
9721;BME280;4899;42.644;23.366;2023-03-23T06:55:11;94350.38;;;7.75;100.00
9721;BME280;4899;42.644;23.366;2023-03-23T06:57:37;94355.78;;;7.73;100.00
9721;BME280;4899;42.644;23.366;2023-03-23T07:00:03;94356.72;;;7.77;100.00
9721;BME280;4899;42.644;23.366;2023-03-23T07:02:42;94350.84;;;7.77;100.00
9721;BME280;4899;42.644;23.366;2023-03-23T07:05:09;94358.97;;;7.92;100.00
9721;BME280;4899;42.644;23.366;2023-03-23T07:07:39;94362.22;;;7.98;100.00
9721;BME280;4899;42.644;23.366;2023-03-23T07:10:07;94362.75;;;8.09;100.00
9721;BME280;4899;42.644;23.366;2023-03-23T07:12:36;94350.72;;;8.09;100.00
9721;BME280;4899;42.644;23.366;2023-03-23T07:15:03;94357.06;;;8.25;100.00
9721;BME280;4899;42.644;23.366;2023-03-23T07:17:29;94353.03;;;8.33;100.00
9721;BME280;4899;42.644;23.366;2023-03-23T07:19:54;94355.97;;;8.40;100.00
9721;BME280;4899;42.644;23.366;2023-03-23T07:22:20;94353.41;;;8.54;100.00
9721;BME280;4899;42.644;23.366;2023-03-23T07:24:46;94364.19;;;8.64;100.00
9721;BME280;4899;42.644;23.366;2023-03-23T07:27:11;94354.59;;;8.70;100.00
9721;BME280;4899;42.644;23.366;2023-03-23T07:29:37;94353.72;;;8.75;100.00
9721;BME280;4899;42.644;23.366;2023-03-23T07:32:04;94358.31;;;8.86;100.00
9721;BME280;4899;42.644;23.366;2023-03-23T07:34:30;94359.22;;;8.90;100.00
9721;BME280;4899;42.644;23.366;2023-03-23T07:36:57;94357.53;;;9.08;100.00
9721;BME280;4899;42.644;23.366;2023-03-23T07:39:23;94356.34;;;9.14;100.00
9721;BME280;4899;42.644;23.366;2023-03-23T07:41:49;94364.88;;;9.23;100.00
9721;BME280;4899;42.644;23.366;2023-03-23T07:44:15;94372.94;;;9.39;100.00
9721;BME280;4899;42.644;23.366;2023-03-23T07:46:40;94360.00;;;9.44;100.00
9721;BME280;4899;42.644;23.366;2023-03-23T07:49:07;94366.38;;;9.55;100.00
9721;BME280;4899;42.644;23.366;2023-03-23T07:51:33;94376.72;;;9.73;100.00
9721;BME280;4899;42.644;23.366;2023-03-23T07:54:01;94384.91;;;9.75;100.00
9721;BME280;4899;42.644;23.366;2023-03-23T07:56:28;94378.41;;;9.77;100.00
9721;BME280;4899;42.644;23.366;2023-03-23T07:58:54;94380.75;;;9.96;100.00
9721;BME280;4899;42.644;23.366;2023-03-23T08:01:20;94377.88;;;9.98;100.00
9721;BME280;4899;42.644;23.366;2023-03-23T08:03:45;94380.00;;;10.04;100.00
9721;BME280;4899;42.644;23.366;2023-03-23T08:06:12;94387.94;;;10.25;100.00
9721;BME280;4899;42.644;23.366;2023-03-23T08:08:37;94391.44;;;10.38;100.00
9721;BME280;4899;42.644;23.366;2023-03-23T08:11:05;94398.56;;;10.41;100.00
9721;BME280;4899;42.644;23.366;2023-03-23T08:13:31;94384.91;;;10.40;100.00
9721;BME280;4899;42.644;23.366;2023-03-23T08:15:58;94395.53;;;10.56;100.00
9721;BME280;4899;42.644;23.366;2023-03-23T08:18:25;94389.63;;;10.64;100.00
9721;BME280;4899;42.644;23.366;2023-03-23T08:20:51;94394.50;;;10.74;100.00
9721;BME280;4899;42.644;23.366;2023-03-23T08:23:19;94398.41;;;10.89;100.00
9721;BME280;4899;42.644;23.366;2023-03-23T08:25:45;94386.91;;;11.04;100.00
9721;BME280;4899;42.644;23.366;2023-03-23T08:28:11;94382.50;;;11.13;100.00
9721;BME280;4899;42.644;23.366;2023-03-23T08:30:39;94391.44;;;11.24;100.00
9721;BME280;4899;42.644;23.366;2023-03-23T08:33:06;94393.53;;;11.31;100.00
9721;BME280;4899;42.644;23.366;2023-03-23T08:35:33;94396.56;;;11.42;100.00
9721;BME280;4899;42.644;23.366;2023-03-23T08:37:58;94385.00;;;11.48;100.00
9721;BME280;4899;42.644;23.366;2023-03-23T08:40:24;94393.72;;;11.64;100.00
9721;BME280;4899;42.644;23.366;2023-03-23T08:42:51;94390.53;;;11.76;100.00
9721;BME280;4899;42.644;23.366;2023-03-23T08:45:20;94379.56;;;11.87;100.00
9721;BME280;4899;42.644;23.366;2023-03-23T08:47:46;94380.31;;;11.96;100.00
9721;BME280;4899;42.644;23.366;2023-03-23T08:50:21;94382.50;;;12.15;100.00
9721;BME280;4899;42.644;23.366;2023-03-23T08:52:48;94385.41;;;12.35;100.00
9721;BME280;4899;42.644;23.366;2023-03-23T08:55:15;94379.63;;;12.38;100.00
9721;BME280;4899;42.644;23.366;2023-03-23T08:57:43;94371.00;;;12.54;100.00
9721;BME280;4899;42.644;23.366;2023-03-23T09:00:12;94387.66;;;12.66;100.00
9721;BME280;4899;42.644;23.366;2023-03-23T09:02:50;94377.59;;;12.85;100.00
9721;BME280;4899;42.644;23.366;2023-03-23T09:05:17;94378.84;;;13.00;100.00
9721;BME280;4899;42.644;23.366;2023-03-23T09:07:47;94388.31;;;12.96;100.00
9721;BME280;4899;42.644;23.366;2023-03-23T09:10:13;94389.38;;;12.94;100.00
9721;BME280;4899;42.644;23.366;2023-03-23T09:12:40;94389.31;;;13.03;100.00
9721;BME280;4899;42.644;23.366;2023-03-23T09:15:07;94387.69;;;13.19;100.00
9721;BME280;4899;42.644;23.366;2023-03-23T09:17:36;94385.75;;;13.29;100.00
9721;BME280;4899;42.644;23.366;2023-03-23T09:20:03;94394.81;;;13.35;100.00
9721;BME280;4899;42.644;23.366;2023-03-23T09:22:32;94392.00;;;13.28;100.00
9721;BME280;4899;42.644;23.366;2023-03-23T09:24:58;94386.94;;;13.31;100.00
9721;BME280;4899;42.644;23.366;2023-03-23T09:27:23;94385.16;;;13.44;100.00
9721;BME280;4899;42.644;23.366;2023-03-23T09:29:49;94390.81;;;13.70;100.00
9721;BME280;4899;42.644;23.366;2023-03-23T09:32:15;94386.06;;;13.84;94.47
9721;BME280;4899;42.644;23.366;2023-03-23T09:34:40;94385.44;;;14.00;95.35
9721;BME280;4899;42.644;23.366;2023-03-23T09:37:06;94365.59;;;14.16;94.44
9721;BME280;4899;42.644;23.366;2023-03-23T09:39:32;94375.91;;;14.40;93.48
9721;BME280;4899;42.644;23.366;2023-03-23T09:42:07;94383.06;;;14.43;79.05
9721;BME280;4899;42.644;23.366;2023-03-23T09:49:56;94381.94;;;14.97;85.01
9721;BME280;4899;42.644;23.366;2023-03-23T09:52:32;94375.50;;;14.91;76.14
9721;BME280;4899;42.644;23.366;2023-03-23T09:55:01;94378.03;;;15.03;82.83
9721;BME280;4899;42.644;23.366;2023-03-23T09:57:32;94374.25;;;15.00;79.68
9721;BME280;4899;42.644;23.366;2023-03-23T10:00:26;94377.03;;;14.80;63.87
9721;BME280;4899;42.644;23.366;2023-03-23T10:03:06;94362.97;;;14.53;67.73
9721;BME280;4899;42.644;23.366;2023-03-23T10:05:40;94353.19;;;14.09;70.84
9721;BME280;4899;42.644;23.366;2023-03-23T10:08:20;94359.13;;;14.22;74.28
9721;BME280;4899;42.644;23.366;2023-03-23T10:14:02;94362.75;;;14.33;72.83
9721;BME280;4899;42.644;23.366;2023-03-23T10:16:36;94369.41;;;14.71;79.83
9721;BME280;4899;42.644;23.366;2023-03-23T10:22:00;94357.81;;;15.08;65.28
9721;BME280;4899;42.644;23.366;2023-03-23T10:24:35;94358.47;;;15.05;61.67
9721;BME280;4899;42.644;23.366;2023-03-23T10:30:02;94348.78;;;15.02;65.22
9721;BME280;4899;42.644;23.366;2023-03-23T10:32:46;94363.22;;;15.03;63.85
9721;BME280;4899;42.644;23.366;2023-03-23T10:35:19;94359.72;;;14.96;66.17
9721;BME280;4899;42.644;23.366;2023-03-23T10:37:53;94352.72;;;14.84;63.50
9721;BME280;4899;42.644;23.366;2023-03-23T10:40:26;94354.19;;;14.97;68.48
9721;BME280;4899;42.644;23.366;2023-03-23T10:42:53;94341.34;;;15.01;66.52
9721;BME280;4899;42.644;23.366;2023-03-23T10:47:56;94354.66;;;15.31;65.52
9721;BME280;4899;42.644;23.366;2023-03-23T10:50:30;94349.44;;;15.43;63.40
9721;BME280;4899;42.644;23.366;2023-03-23T10:52:57;94350.38;;;15.66;64.60
9721;BME280;4899;42.644;23.366;2023-03-23T10:55:35;94349.19;;;15.80;58.43
9721;BME280;4899;42.644;23.366;2023-03-23T10:58:08;94345.53;;;15.65;62.13
9721;BME280;4899;42.644;23.366;2023-03-23T11:00:44;94347.78;;;15.82;63.30
9721;BME280;4899;42.644;23.366;2023-03-23T11:05:49;94347.34;;;15.80;59.55
9721;BME280;4899;42.644;23.366;2023-03-23T11:08:19;94334.72;;;15.79;59.84
9721;BME280;4899;42.644;23.366;2023-03-23T11:10:52;94351.88;;;15.99;58.44
9721;BME280;4899;42.644;23.366;2023-03-23T11:13:20;94337.72;;;16.31;59.92
9721;BME280;4899;42.644;23.366;2023-03-23T11:15:48;94339.03;;;16.76;59.49
9721;BME280;4899;42.644;23.366;2023-03-23T11:18:23;94329.66;;;17.10;57.19
9721;BME280;4899;42.644;23.366;2023-03-23T11:20:55;94335.72;;;17.41;53.36
9721;BME280;4899;42.644;23.366;2023-03-23T11:23:30;94324.09;;;18.07;51.68
9721;BME280;4899;42.644;23.366;2023-03-23T11:26:01;94327.59;;;18.74;52.55
9721;BME280;4899;42.644;23.366;2023-03-23T11:28:30;94325.19;;;19.74;51.81
9721;BME280;4899;42.644;23.366;2023-03-23T11:30:59;94325.84;;;20.95;50.31
9721;BME280;4899;42.644;23.366;2023-03-23T11:36:12;94316.34;;;22.96;48.40
9721;BME280;4899;42.644;23.366;2023-03-23T11:38:40;94321.03;;;23.85;46.99
9721;BME280;4899;42.644;23.366;2023-03-23T11:41:12;94321.47;;;24.18;43.14
9721;BME280;4899;42.644;23.366;2023-03-23T11:43:44;94314.53;;;25.03;41.58
9721;BME280;4899;42.644;23.366;2023-03-23T11:49:10;94287.22;;;26.57;34.16
9721;BME280;4899;42.644;23.366;2023-03-23T11:51:49;94329.22;;;26.28;41.16
9721;BME280;4899;42.644;23.366;2023-03-23T11:54:32;94314.75;;;26.56;39.08
9721;BME280;4899;42.644;23.366;2023-03-23T11:56:58;94320.47;;;26.31;40.40
9721;BME280;4899;42.644;23.366;2023-03-23T11:59:35;94281.06;;;26.44;34.54
9721;BME280;4899;42.644;23.366;2023-03-23T12:05:20;94273.81;;;26.28;33.35
9721;BME280;4899;42.644;23.366;2023-03-23T12:10:59;94279.97;;;25.51;34.34
9721;BME280;4899;42.644;23.366;2023-03-23T12:16:00;94312.69;;;25.00;39.02
9721;BME280;4899;42.644;23.366;2023-03-23T12:21:52;94243.19;;;26.34;32.72
9721;BME280;4899;42.644;23.366;2023-03-23T12:35:40;94273.53;;;30.06;31.26
9721;BME280;4899;42.644;23.366;2023-03-23T12:51:53;94251.13;;;31.71;31.07
9721;BME280;4899;42.644;23.366;2023-03-23T12:54:34;94250.25;;;32.20;30.65
9721;BME280;4899;42.644;23.366;2023-03-23T13:00:30;94180.00;;;32.18;25.15
9721;BME280;4899;42.644;23.366;2023-03-23T13:03:02;94235.59;;;32.16;29.35
9721;BME280;4899;42.644;23.366;2023-03-23T13:05:41;94204.06;;;32.41;26.51
9721;BME280;4899;42.644;23.366;2023-03-23T13:08:19;94191.25;;;32.73;25.33
9721;BME280;4899;42.644;23.366;2023-03-23T13:10:48;94191.81;;;32.86;27.30
9721;BME280;4899;42.644;23.366;2023-03-23T13:13:25;94191.13;;;32.67;25.77
9721;BME280;4899;42.644;23.366;2023-03-23T13:16:07;94183.06;;;33.43;24.92
9721;BME280;4899;42.644;23.366;2023-03-23T13:19:11;94162.94;;;33.95;24.28
9721;BME280;4899;42.644;23.366;2023-03-23T13:23:04;94137.34;;;34.18;22.77
9721;BME280;4899;42.644;23.366;2023-03-23T13:25:08;94169.72;;;33.81;26.22
9721;BME280;4899;42.644;23.366;2023-03-23T13:27:37;94177.50;;;32.65;27.28
9721;BME280;4899;42.644;23.366;2023-03-23T13:30:02;94198.97;;;31.83;27.66
9721;BME280;4899;42.644;23.366;2023-03-23T13:32:36;94198.09;;;31.00;27.47
9721;BME280;4899;42.644;23.366;2023-03-23T13:35:12;94201.28;;;31.35;26.11
9721;BME280;4899;42.644;23.366;2023-03-23T13:37:44;94205.91;;;32.08;26.68
9721;BME280;4899;42.644;23.366;2023-03-23T13:40:24;94206.34;;;32.06;27.51
9721;BME280;4899;42.644;23.366;2023-03-23T13:42:56;94186.09;;;31.72;25.98
9721;BME280;4899;42.644;23.366;2023-03-23T13:45:23;94197.91;;;31.53;27.63
9721;BME280;4899;42.644;23.366;2023-03-23T13:47:50;94195.66;;;32.25;26.98
9721;BME280;4899;42.644;23.366;2023-03-23T13:50:28;94196.56;;;32.12;27.16
9721;BME280;4899;42.644;23.366;2023-03-23T13:53:00;94185.03;;;31.61;27.02
9721;BME280;4899;42.644;23.366;2023-03-23T13:55:49;94173.69;;;31.78;25.14
9721;BME280;4899;42.644;23.366;2023-03-23T13:58:23;94188.59;;;32.12;26.10
9721;BME280;4899;42.644;23.366;2023-03-23T14:01:16;94163.88;;;32.12;24.96
9721;BME280;4899;42.644;23.366;2023-03-23T14:03:50;94176.03;;;32.04;25.68
9721;BME280;4899;42.644;23.366;2023-03-23T14:06:23;94170.97;;;32.24;26.42
9721;BME280;4899;42.644;23.366;2023-03-23T14:08:53;94168.00;;;32.83;25.55
9721;BME280;4899;42.644;23.366;2023-03-23T14:11:28;94144.63;;;32.68;24.90
9721;BME280;4899;42.644;23.366;2023-03-23T14:14:06;94149.66;;;32.76;25.29
9721;BME280;4899;42.644;23.366;2023-03-23T14:19:04;94155.44;;;32.13;26.40
9721;BME280;4899;42.644;23.366;2023-03-23T14:21:58;94151.44;;;32.18;24.66
9721;BME280;4899;42.644;23.366;2023-03-23T14:27:02;94154.59;;;31.98;24.73
9721;BME280;4899;42.644;23.366;2023-03-23T14:29:33;94163.59;;;32.10;26.17
9721;BME280;4899;42.644;23.366;2023-03-23T14:32:00;94171.38;;;32.41;25.87
9721;BME280;4899;42.644;23.366;2023-03-23T14:34:29;94164.00;;;32.36;25.83
9721;BME280;4899;42.644;23.366;2023-03-23T14:36:57;94152.16;;;32.70;25.83
9721;BME280;4899;42.644;23.366;2023-03-23T14:39:26;94157.16;;;32.86;25.78
9721;BME280;4899;42.644;23.366;2023-03-23T14:42:09;94143.03;;;33.19;24.80
9721;BME280;4899;42.644;23.366;2023-03-23T14:44:40;94136.66;;;33.01;24.88
9721;BME280;4899;42.644;23.366;2023-03-23T14:47:31;94151.88;;;32.17;25.82
9721;BME280;4899;42.644;23.366;2023-03-23T14:49:57;94159.13;;;32.16;26.12
9721;BME280;4899;42.644;23.366;2023-03-23T14:52:29;94150.00;;;32.59;25.36
9721;BME280;4899;42.644;23.366;2023-03-23T14:54:55;94132.63;;;32.73;25.35
9721;BME280;4899;42.644;23.366;2023-03-23T14:57:29;94130.13;;;32.18;24.46